createdAt,value
2017-10-28T00:00:37.051Z,9.93
2017-10-28T00:01:17.591Z,9.9
2017-10-28T00:01:58.125Z,9.87
2017-10-28T00:02:38.658Z,9.87
2017-10-28T00:03:19.188Z,9.91
2017-10-28T00:03:59.726Z,9.96
2017-10-28T00:04:40.265Z,9.97
2017-10-28T00:05:20.806Z,9.94
2017-10-28T00:06:01.343Z,9.87
2017-10-28T00:06:41.876Z,9.89
2017-10-28T00:07:22.409Z,9.91
2017-10-28T00:08:02.945Z,9.87
2017-10-28T00:08:43.481Z,9.9
2017-10-28T00:09:24.018Z,9.87
2017-10-28T00:10:04.553Z,9.89
2017-10-28T00:10:45.087Z,9.83
2017-10-28T00:11:25.621Z,9.76
2017-10-28T00:12:06.148Z,9.78
2017-10-28T00:12:46.690Z,9.76
2017-10-28T00:13:27.222Z,9.78
2017-10-28T00:14:07.757Z,9.83
2017-10-28T00:14:48.296Z,9.84
2017-10-28T00:15:28.830Z,9.83
2017-10-28T00:16:09.362Z,9.83
2017-10-28T00:16:49.896Z,9.86
2017-10-28T00:17:30.438Z,9.87
2017-10-28T00:18:10.974Z,9.84
2017-10-28T00:18:51.506Z,9.78
2017-10-28T00:19:32.042Z,9.81
2017-10-28T00:20:12.571Z,9.75
2017-10-28T00:20:53.116Z,9.76
2017-10-28T00:21:33.641Z,9.72
2017-10-28T00:22:14.225Z,9.81
2017-10-28T00:22:54.760Z,9.76
2017-10-28T00:23:35.295Z,9.78
2017-10-28T00:24:15.830Z,9.78
2017-10-28T00:24:56.362Z,9.81
2017-10-28T00:25:36.899Z,9.78
2017-10-28T00:26:17.428Z,9.79
2017-10-28T00:26:57.968Z,9.74
2017-10-28T00:27:38.517Z,9.72
2017-10-28T00:28:19.136Z,9.76
2017-10-28T00:28:59.673Z,9.76
2017-10-28T00:29:40.221Z,9.72
2017-10-28T00:30:20.757Z,9.76
2017-10-28T00:31:01.284Z,9.81
2017-10-28T00:31:41.824Z,9.81
2017-10-28T00:32:22.363Z,9.84
2017-10-28T00:33:02.890Z,9.83
2017-10-28T00:33:43.423Z,9.83
2017-10-28T00:34:23.980Z,9.84
2017-10-28T00:35:04.486Z,9.76
2017-10-28T00:35:45.026Z,9.86
2017-10-28T00:36:25.554Z,9.91
2017-10-28T00:37:06.118Z,9.76
2017-10-28T00:37:46.665Z,9.81
2017-10-28T00:38:27.194Z,9.9
2017-10-28T00:39:07.731Z,9.91
2017-10-28T00:39:48.263Z,9.9
2017-10-28T00:40:28.801Z,9.87
2017-10-28T00:41:09.334Z,9.87
2017-10-28T00:41:49.869Z,9.87
2017-10-28T00:42:30.408Z,9.86
2017-10-28T00:43:10.955Z,9.86
2017-10-28T00:43:51.490Z,9.93
2017-10-28T00:44:32.019Z,9.91
2017-10-28T00:45:12.557Z,9.99
2017-10-28T00:45:53.089Z,10.04
2017-10-28T00:46:33.622Z,10.05
2017-10-28T00:47:14.160Z,10.02
2017-10-28T00:47:54.726Z,10.02
2017-10-28T00:48:35.260Z,10.05
2017-10-28T00:49:15.806Z,10.04
2017-10-28T00:49:56.342Z,10.07
2017-10-28T00:50:36.875Z,10.12
2017-10-28T00:51:17.410Z,10.12
2017-10-28T00:51:57.942Z,10.18
2017-10-28T00:52:38.480Z,10.22
2017-10-28T00:53:19.014Z,10.2
2017-10-28T00:53:59.550Z,10.2
2017-10-28T00:54:40.137Z,10.22
2017-10-28T00:55:20.672Z,10.22
2017-10-28T00:56:01.210Z,10.2
2017-10-28T00:56:41.744Z,10.27
2017-10-28T00:57:22.282Z,10.32
2017-10-28T00:58:02.809Z,10.3
2017-10-28T00:58:43.346Z,10.27
2017-10-28T00:59:23.893Z,10.3
2017-10-28T01:00:04.418Z,10.34
2017-10-28T01:00:44.951Z,10.29
2017-10-28T01:01:25.492Z,10.33
2017-10-28T01:02:06.026Z,10.34
2017-10-28T01:02:46.559Z,10.32
2017-10-28T01:03:27.096Z,10.33
2017-10-28T01:04:07.630Z,10.41
2017-10-28T01:04:48.167Z,10.41
2017-10-28T01:05:28.710Z,10.41
2017-10-28T01:06:09.241Z,10.34
2017-10-28T01:06:50.364Z,10.36
2017-10-28T01:07:30.898Z,10.34
2017-10-28T01:08:11.432Z,10.4
2017-10-28T01:08:52.006Z,10.36
2017-10-28T01:09:32.550Z,10.42
2017-10-28T01:10:13.083Z,10.47
2017-10-28T01:10:53.616Z,10.44
2017-10-28T01:11:34.150Z,10.42
2017-10-28T01:12:14.679Z,10.44
2017-10-28T01:12:55.214Z,10.42
2017-10-28T01:13:35.748Z,10.51
2017-10-28T01:14:16.287Z,10.48
2017-10-28T01:14:56.824Z,10.53
2017-10-28T01:15:37.362Z,10.48
2017-10-28T01:16:17.895Z,10.53
2017-10-28T01:16:58.431Z,10.61
2017-10-28T01:17:38.965Z,10.53
2017-10-28T01:18:19.498Z,10.64
2017-10-28T01:19:00.034Z,10.6
2017-10-28T01:19:40.572Z,10.63
2017-10-28T01:20:21.113Z,10.68
2017-10-28T01:21:01.648Z,10.64
2017-10-28T01:21:42.180Z,10.64
2017-10-28T01:22:22.718Z,10.64
2017-10-28T01:23:03.255Z,10.66
2017-10-28T01:23:43.795Z,10.67
2017-10-28T01:24:24.328Z,10.64
2017-10-28T01:25:04.866Z,10.61
2017-10-28T01:25:45.404Z,10.67
2017-10-28T01:26:25.935Z,10.61
2017-10-28T01:27:06.472Z,10.6
2017-10-28T01:27:47.010Z,10.63
2017-10-28T01:28:27.546Z,10.64
2017-10-28T01:29:08.082Z,10.59
2017-10-28T01:29:48.614Z,10.61
2017-10-28T01:30:29.143Z,10.61
2017-10-28T01:31:09.677Z,10.6
2017-10-28T01:31:50.214Z,10.63
2017-10-28T01:32:30.742Z,10.66
2017-10-28T01:33:11.270Z,10.66
2017-10-28T01:33:51.807Z,10.63
2017-10-28T01:34:32.344Z,10.63
2017-10-28T01:35:12.878Z,10.67
2017-10-28T01:35:53.415Z,10.61
2017-10-28T01:36:33.944Z,10.63
2017-10-28T01:37:14.485Z,10.64
2017-10-28T01:37:55.039Z,10.56
2017-10-28T01:38:35.575Z,10.67
2017-10-28T01:39:16.113Z,10.6
2017-10-28T01:39:56.640Z,10.6
2017-10-28T01:40:37.174Z,10.66
2017-10-28T01:41:17.712Z,10.67
2017-10-28T01:41:58.248Z,10.64
2017-10-28T01:42:38.790Z,10.64
2017-10-28T01:43:19.325Z,10.63
2017-10-28T01:43:59.856Z,10.64
2017-10-28T01:44:40.389Z,10.64
2017-10-28T01:45:20.926Z,10.63
2017-10-28T01:46:01.470Z,10.63
2017-10-28T01:46:42.003Z,10.67
2017-10-28T01:47:22.549Z,10.64
2017-10-28T01:48:03.081Z,10.6
2017-10-28T01:48:43.628Z,10.63
2017-10-28T01:49:24.162Z,10.61
2017-10-28T01:50:04.694Z,10.63
2017-10-28T01:50:45.235Z,10.63
2017-10-28T01:51:25.774Z,10.64
2017-10-28T01:52:06.312Z,10.64
2017-10-28T01:52:46.850Z,10.64
2017-10-28T01:53:27.392Z,10.63
2017-10-28T01:54:07.928Z,10.63
2017-10-28T01:54:48.459Z,10.64
2017-10-28T01:55:28.995Z,10.61
2017-10-28T01:56:09.535Z,10.61
2017-10-28T01:56:50.076Z,10.61
2017-10-28T01:57:30.619Z,10.64
2017-10-28T01:58:11.158Z,10.59
2017-10-28T01:58:51.694Z,10.61
2017-10-28T01:59:32.256Z,10.63
2017-10-28T02:00:12.794Z,10.64
2017-10-28T02:00:53.331Z,10.67
2017-10-28T02:01:33.865Z,10.61
2017-10-28T02:02:14.402Z,10.63
2017-10-28T02:02:54.941Z,10.63
2017-10-28T02:03:35.478Z,10.66
2017-10-28T02:04:16.002Z,10.7
2017-10-28T02:04:56.539Z,10.63
2017-10-28T02:05:37.077Z,10.67
2017-10-28T02:06:17.645Z,10.63
2017-10-28T02:06:58.177Z,10.67
2017-10-28T02:07:38.714Z,10.63
2017-10-28T02:08:19.249Z,10.73
2017-10-28T02:08:59.786Z,10.64
2017-10-28T02:09:40.325Z,10.66
2017-10-28T02:10:20.865Z,10.68
2017-10-28T02:11:01.397Z,10.66
2017-10-28T02:11:41.929Z,10.71
2017-10-28T02:12:22.459Z,10.74
2017-10-28T02:13:02.997Z,10.66
2017-10-28T02:13:43.532Z,10.74
2017-10-28T02:14:24.069Z,10.67
2017-10-28T02:15:04.596Z,10.73
2017-10-28T02:15:45.128Z,10.73
2017-10-28T02:16:25.662Z,10.67
2017-10-28T02:17:06.194Z,10.66
2017-10-28T02:17:46.731Z,10.66
2017-10-28T02:18:27.271Z,10.68
2017-10-28T02:19:07.813Z,10.7
2017-10-28T02:19:48.347Z,10.68
2017-10-28T02:20:28.885Z,10.68
2017-10-28T02:21:09.422Z,10.73
2017-10-28T02:21:49.958Z,10.74
2017-10-28T02:22:30.497Z,10.73
2017-10-28T02:23:11.030Z,10.67
2017-10-28T02:23:51.560Z,10.74
2017-10-28T02:24:32.093Z,10.68
2017-10-28T02:25:12.625Z,10.68
2017-10-28T02:25:53.163Z,10.66
2017-10-28T02:26:33.699Z,10.78
2017-10-28T02:27:14.236Z,10.7
2017-10-28T02:27:54.778Z,10.74
2017-10-28T02:28:35.323Z,10.73
2017-10-28T02:29:15.859Z,10.76
2017-10-28T02:29:56.394Z,10.73
2017-10-28T02:30:36.926Z,10.78
2017-10-28T02:31:17.461Z,10.81
2017-10-28T02:31:57.997Z,10.73
2017-10-28T02:32:38.537Z,10.78
2017-10-28T02:33:19.074Z,10.76
2017-10-28T02:33:59.613Z,10.74
2017-10-28T02:34:40.144Z,10.78
2017-10-28T02:35:20.680Z,10.71
2017-10-28T02:36:01.217Z,10.71
2017-10-28T02:36:41.751Z,10.78
2017-10-28T02:37:22.288Z,10.76
2017-10-28T02:38:02.825Z,10.76
2017-10-28T02:38:43.354Z,10.82
2017-10-28T02:39:23.883Z,10.76
2017-10-28T02:40:04.424Z,10.78
2017-10-28T02:40:44.960Z,10.71
2017-10-28T02:41:25.496Z,10.73
2017-10-28T02:42:06.027Z,10.71
2017-10-28T02:42:46.561Z,10.68
2017-10-28T02:43:27.094Z,10.64
2017-10-28T02:44:07.628Z,10.7
2017-10-28T02:44:48.164Z,10.74
2017-10-28T02:45:28.696Z,10.71
2017-10-28T02:46:09.236Z,10.68
2017-10-28T02:46:49.778Z,10.67
2017-10-28T02:47:30.302Z,10.67
2017-10-28T02:48:10.840Z,10.63
2017-10-28T02:48:51.379Z,10.63
2017-10-28T02:49:31.919Z,10.67
2017-10-28T02:50:12.456Z,10.64
2017-10-28T02:50:52.997Z,10.7
2017-10-28T02:51:33.533Z,10.67
2017-10-28T02:52:14.066Z,10.61
2017-10-28T02:52:54.606Z,10.61
2017-10-28T02:53:35.133Z,10.67
2017-10-28T02:54:15.671Z,10.63
2017-10-28T02:54:56.206Z,10.59
2017-10-28T02:55:36.748Z,10.67
2017-10-28T02:56:17.278Z,10.66
2017-10-28T02:56:57.815Z,10.61
2017-10-28T02:57:38.357Z,10.64
2017-10-28T02:58:18.878Z,10.6
2017-10-28T02:58:59.417Z,10.63
2017-10-28T02:59:39.953Z,10.6
2017-10-28T03:00:20.493Z,10.6
2017-10-28T03:01:01.024Z,10.61
2017-10-28T03:01:41.560Z,10.61
2017-10-28T03:02:22.098Z,10.66
2017-10-28T03:03:02.629Z,10.67
2017-10-28T03:03:43.165Z,10.67
2017-10-28T03:04:23.702Z,10.63
2017-10-28T03:05:04.238Z,10.6
2017-10-28T03:05:44.769Z,10.61
2017-10-28T03:06:25.317Z,10.64
2017-10-28T03:07:05.845Z,10.61
2017-10-28T03:07:46.382Z,10.55
2017-10-28T03:08:26.918Z,10.68
2017-10-28T03:09:07.453Z,10.68
2017-10-28T03:09:47.982Z,10.66
2017-10-28T03:10:28.521Z,10.59
2017-10-28T03:11:09.058Z,10.61
2017-10-28T03:11:49.595Z,10.66
2017-10-28T03:12:30.137Z,10.63
2017-10-28T03:13:10.675Z,10.6
2017-10-28T03:13:51.214Z,10.66
2017-10-28T03:14:31.749Z,10.63
2017-10-28T03:15:12.281Z,10.6
2017-10-28T03:15:52.820Z,10.61
2017-10-28T03:16:33.354Z,10.67
2017-10-28T03:17:13.897Z,10.64
2017-10-28T03:17:54.433Z,10.6
2017-10-28T03:18:34.970Z,10.6
2017-10-28T03:19:15.503Z,10.63
2017-10-28T03:19:56.037Z,10.63
2017-10-28T03:20:36.582Z,10.6
2017-10-28T03:21:17.114Z,10.63
2017-10-28T03:21:57.658Z,10.56
2017-10-28T03:22:38.197Z,10.66
2017-10-28T03:23:18.734Z,10.6
2017-10-28T03:23:59.273Z,10.64
2017-10-28T03:24:39.839Z,10.63
2017-10-28T03:25:20.376Z,10.67
2017-10-28T03:26:00.917Z,10.66
2017-10-28T03:26:41.439Z,10.6
2017-10-28T03:27:21.972Z,10.66
2017-10-28T03:28:02.512Z,10.63
2017-10-28T03:28:43.052Z,10.61
2017-10-28T03:29:23.593Z,10.6
2017-10-28T03:30:04.132Z,10.6
2017-10-28T03:30:44.670Z,10.66
2017-10-28T03:31:25.196Z,10.73
2017-10-28T03:32:05.736Z,10.68
2017-10-28T03:32:46.275Z,10.68
2017-10-28T03:33:26.807Z,10.68
2017-10-28T03:34:07.360Z,10.74
2017-10-28T03:34:47.854Z,10.66
2017-10-28T03:35:28.396Z,10.64
2017-10-28T03:36:08.934Z,10.71
2017-10-28T03:36:49.483Z,10.78
2017-10-28T03:37:30.010Z,10.73
2017-10-28T03:38:10.547Z,10.76
2017-10-28T03:38:51.089Z,10.81
2017-10-28T03:39:31.627Z,10.73
2017-10-28T03:40:12.154Z,10.79
2017-10-28T03:40:52.689Z,10.78
2017-10-28T03:41:33.233Z,10.74
2017-10-28T03:42:13.766Z,10.79
2017-10-28T03:42:54.300Z,10.85
2017-10-28T03:43:34.842Z,10.74
2017-10-28T03:44:15.383Z,10.82
2017-10-28T03:44:55.922Z,10.79
2017-10-28T03:45:36.458Z,10.82
2017-10-28T03:46:16.990Z,10.82
2017-10-28T03:46:57.531Z,10.82
2017-10-28T03:47:38.067Z,10.84
2017-10-28T03:48:18.599Z,10.79
2017-10-28T03:48:59.138Z,10.86
2017-10-28T03:49:39.666Z,10.89
2017-10-28T03:50:20.214Z,10.86
2017-10-28T03:51:00.752Z,10.85
2017-10-28T03:51:41.291Z,10.84
2017-10-28T03:52:21.830Z,10.88
2017-10-28T03:53:02.372Z,10.88
2017-10-28T03:53:42.908Z,10.91
2017-10-28T03:54:23.451Z,10.86
2017-10-28T03:55:03.990Z,10.86
2017-10-28T03:55:44.522Z,10.85
2017-10-28T03:56:25.063Z,10.91
2017-10-28T03:57:05.596Z,10.84
2017-10-28T03:57:46.132Z,10.94
2017-10-28T03:58:26.781Z,10.81
2017-10-28T03:59:07.310Z,10.89
2017-10-28T03:59:47.879Z,10.89
2017-10-28T04:00:28.370Z,10.89
2017-10-28T04:01:08.910Z,10.92
2017-10-28T04:01:49.439Z,10.88
2017-10-28T04:02:29.984Z,10.84
2017-10-28T04:03:10.520Z,10.84
2017-10-28T04:03:51.053Z,10.82
2017-10-28T04:04:31.585Z,10.84
2017-10-28T04:05:12.122Z,10.78
2017-10-28T04:05:52.639Z,10.79
2017-10-28T04:06:33.174Z,10.85
2017-10-28T04:07:13.712Z,10.86
2017-10-28T04:07:54.251Z,10.85
2017-10-28T04:08:34.788Z,10.84
2017-10-28T04:09:15.324Z,10.82
2017-10-28T04:09:55.860Z,10.79
2017-10-28T04:10:36.400Z,10.79
2017-10-28T04:11:16.939Z,10.82
2017-10-28T04:11:57.478Z,10.74
2017-10-28T04:12:38.016Z,10.73
2017-10-28T04:13:18.554Z,10.71
2017-10-28T04:13:59.089Z,10.73
2017-10-28T04:14:39.621Z,10.67
2017-10-28T04:15:20.157Z,10.67
2017-10-28T04:16:00.692Z,10.71
2017-10-28T04:16:41.232Z,10.66
2017-10-28T04:17:21.769Z,10.64
2017-10-28T04:18:02.304Z,10.63
2017-10-28T04:18:42.836Z,10.59
2017-10-28T04:19:23.368Z,10.64
2017-10-28T04:20:03.929Z,10.64
2017-10-28T04:20:44.467Z,10.6
2017-10-28T04:21:24.998Z,10.64
2017-10-28T04:22:05.529Z,10.6
2017-10-28T04:22:46.086Z,10.64
2017-10-28T04:23:26.627Z,10.64
2017-10-28T04:24:07.183Z,10.64
2017-10-28T04:24:47.718Z,10.64
2017-10-28T04:25:28.249Z,10.6
2017-10-28T04:26:08.789Z,10.63
2017-10-28T04:26:49.325Z,10.63
2017-10-28T04:27:29.865Z,10.61
2017-10-28T04:28:10.402Z,10.67
2017-10-28T04:28:50.939Z,10.6
2017-10-28T04:29:31.476Z,10.67
2017-10-28T04:30:12.015Z,10.6
2017-10-28T04:30:52.548Z,10.61
2017-10-28T04:31:33.080Z,10.59
2017-10-28T04:32:13.628Z,10.64
2017-10-28T04:32:54.158Z,10.64
2017-10-28T04:33:34.694Z,10.64
2017-10-28T04:34:15.228Z,10.6
2017-10-28T04:34:55.763Z,10.67
2017-10-28T04:35:36.297Z,10.61
2017-10-28T04:36:16.835Z,10.6
2017-10-28T04:36:57.369Z,10.63
2017-10-28T04:37:37.904Z,10.6
2017-10-28T04:38:18.438Z,10.53
2017-10-28T04:38:58.979Z,10.59
2017-10-28T04:39:39.507Z,10.52
2017-10-28T04:40:20.047Z,10.55
2017-10-28T04:41:00.579Z,10.48
2017-10-28T04:41:41.117Z,10.53
2017-10-28T04:42:21.657Z,10.47
2017-10-28T04:43:02.196Z,10.53
2017-10-28T04:43:42.735Z,10.51
2017-10-28T04:44:23.269Z,10.55
2017-10-28T04:45:03.806Z,10.64
2017-10-28T04:45:44.339Z,10.51
2017-10-28T04:46:24.873Z,10.48
2017-10-28T04:47:05.406Z,10.48
2017-10-28T04:47:45.948Z,10.59
2017-10-28T04:48:26.471Z,10.56
2017-10-28T04:49:07.014Z,10.61
2017-10-28T04:49:47.553Z,10.64
2017-10-28T04:50:28.092Z,10.53
2017-10-28T04:51:08.623Z,10.7
2017-10-28T04:51:49.157Z,10.64
2017-10-28T04:52:29.701Z,10.59
2017-10-28T04:53:10.241Z,10.67
2017-10-28T04:53:50.767Z,10.55
2017-10-28T04:54:31.303Z,10.47
2017-10-28T04:55:11.859Z,10.52
2017-10-28T04:55:52.372Z,10.53
2017-10-28T04:56:32.909Z,10.48
2017-10-28T04:57:13.440Z,10.48
2017-10-28T04:57:53.981Z,10.41
2017-10-28T04:58:34.518Z,10.4
2017-10-28T04:59:15.048Z,10.36
2017-10-28T04:59:55.581Z,10.42
2017-10-28T05:00:36.121Z,10.42
2017-10-28T05:01:16.661Z,10.42
2017-10-28T05:01:57.197Z,10.41
2017-10-28T05:02:37.734Z,10.41
2017-10-28T05:03:18.273Z,10.44
2017-10-28T05:03:58.806Z,10.38
2017-10-28T05:04:39.346Z,10.41
2017-10-28T05:05:19.881Z,10.42
2017-10-28T05:06:00.419Z,10.41
2017-10-28T05:06:40.964Z,10.42
2017-10-28T05:07:21.504Z,10.34
2017-10-28T05:08:02.032Z,10.42
2017-10-28T05:08:42.579Z,10.4
2017-10-28T05:09:23.110Z,10.4
2017-10-28T05:10:03.681Z,10.38
2017-10-28T05:10:44.213Z,10.33
2017-10-28T05:11:24.754Z,10.36
2017-10-28T05:12:05.289Z,10.34
2017-10-28T05:12:45.822Z,10.29
2017-10-28T05:13:26.357Z,10.29
2017-10-28T05:14:06.896Z,10.26
2017-10-28T05:14:47.428Z,10.32
2017-10-28T05:15:27.965Z,10.27
2017-10-28T05:16:08.506Z,10.26
2017-10-28T05:16:49.047Z,10.26
2017-10-28T05:17:29.584Z,10.2
2017-10-28T05:18:10.123Z,10.15
2017-10-28T05:18:50.659Z,10.23
2017-10-28T05:19:31.189Z,10.12
2017-10-28T05:20:11.731Z,10.15
2017-10-28T05:20:52.273Z,10.12
2017-10-28T05:21:32.804Z,10.15
2017-10-28T05:22:13.336Z,10.14
2017-10-28T05:22:53.876Z,10.18
2017-10-28T05:23:34.412Z,10.17
2017-10-28T05:24:14.944Z,10.17
2017-10-28T05:24:55.492Z,10.12
2017-10-28T05:25:36.025Z,10.11
2017-10-28T05:26:16.564Z,10.14
2017-10-28T05:26:57.095Z,10.15
2017-10-28T05:27:37.640Z,10.15
2017-10-28T05:28:18.182Z,10.22
2017-10-28T05:28:58.718Z,10.22
2017-10-28T05:29:39.262Z,10.22
2017-10-28T05:30:19.793Z,10.18
2017-10-28T05:31:00.328Z,10.26
2017-10-28T05:31:40.855Z,10.22
2017-10-28T05:32:21.396Z,10.17
2017-10-28T05:33:01.929Z,10.2
2017-10-28T05:33:42.466Z,10.22
2017-10-28T05:34:22.999Z,10.2
2017-10-28T05:35:03.534Z,10.12
2017-10-28T05:35:44.082Z,10.2
2017-10-28T05:36:24.613Z,10.08
2017-10-28T05:37:05.149Z,10.07
2017-10-28T05:37:45.690Z,10.09
2017-10-28T05:38:26.231Z,10.09
2017-10-28T05:39:06.763Z,10.09
2017-10-28T05:39:47.297Z,10.05
2017-10-28T05:40:27.834Z,10.11
2017-10-28T05:41:08.376Z,10.07
2017-10-28T05:41:48.918Z,10.14
2017-10-28T05:42:29.455Z,10.07
2017-10-28T05:43:09.994Z,10.07
2017-10-28T05:43:50.530Z,10.07
2017-10-28T05:44:31.073Z,10.12
2017-10-28T05:45:11.604Z,10.14
2017-10-28T05:45:52.153Z,10.05
2017-10-28T05:46:32.730Z,10.07
2017-10-28T05:47:13.263Z,10.05
2017-10-28T05:47:53.809Z,10.04
2017-10-28T05:48:34.335Z,10.02
2017-10-28T05:49:14.870Z,10.04
2017-10-28T05:49:55.401Z,10.02
2017-10-28T05:50:35.939Z,10.07
2017-10-28T05:51:16.474Z,10.07
2017-10-28T05:51:57.002Z,10.04
2017-10-28T05:52:37.537Z,10.09
2017-10-28T05:53:18.074Z,10.02
2017-10-28T05:53:58.611Z,10.01
2017-10-28T05:54:39.146Z,10.12
2017-10-28T05:55:19.674Z,10.08
2017-10-28T05:56:00.203Z,10.04
2017-10-28T05:56:40.737Z,10.08
2017-10-28T05:57:21.277Z,10.08
2017-10-28T05:58:01.816Z,10.04
2017-10-28T05:58:42.483Z,10.08
2017-10-28T05:59:23.045Z,10.08
2017-10-28T06:00:03.617Z,10.05
2017-10-28T06:00:44.149Z,9.96
2017-10-28T06:01:24.686Z,9.99
2017-10-28T06:02:05.219Z,10.05
2017-10-28T06:02:45.750Z,9.99
2017-10-28T06:03:26.285Z,10.08
2017-10-28T06:04:06.819Z,10.04
2017-10-28T06:04:47.360Z,10.07
2017-10-28T06:05:27.900Z,9.97
2017-10-28T06:06:08.440Z,9.97
2017-10-28T06:06:48.976Z,10.07
2017-10-28T06:07:29.520Z,10.02
2017-10-28T06:08:10.061Z,9.99
2017-10-28T06:08:50.597Z,10.02
2017-10-28T06:09:31.133Z,10.01
2017-10-28T06:10:11.665Z,10.05
2017-10-28T06:10:52.198Z,10.09
2017-10-28T06:11:32.738Z,10.01
2017-10-28T06:12:13.272Z,9.94
2017-10-28T06:12:53.810Z,9.99
2017-10-28T06:13:34.346Z,9.99
2017-10-28T06:14:14.876Z,9.99
2017-10-28T06:14:55.411Z,9.97
2017-10-28T06:15:35.949Z,9.97
2017-10-28T06:16:16.477Z,10.01
2017-10-28T06:16:57.012Z,10.01
2017-10-28T06:17:37.550Z,10.02
2017-10-28T06:18:18.086Z,10.02
2017-10-28T06:18:58.623Z,10.01
2017-10-28T06:19:39.156Z,10.02
2017-10-28T06:20:19.727Z,10.04
2017-10-28T06:21:00.261Z,9.99
2017-10-28T06:21:40.802Z,10.05
2017-10-28T06:22:21.336Z,10.02
2017-10-28T06:23:01.875Z,9.99
2017-10-28T06:23:42.413Z,10.04
2017-10-28T06:24:22.941Z,9.99
2017-10-28T06:25:03.478Z,10.04
2017-10-28T06:25:44.011Z,10.07
2017-10-28T06:26:24.542Z,10.04
2017-10-28T06:27:05.071Z,10.02
2017-10-28T06:27:45.601Z,10.02
2017-10-28T06:28:26.135Z,9.96
2017-10-28T06:29:06.671Z,10.02
2017-10-28T06:29:47.210Z,10.01
2017-10-28T06:30:27.745Z,10.02
2017-10-28T06:31:08.281Z,9.94
2017-10-28T06:31:48.817Z,10.02
2017-10-28T06:32:29.348Z,9.91
2017-10-28T06:33:09.875Z,9.89
2017-10-28T06:33:50.410Z,9.87
2017-10-28T06:34:30.948Z,9.9
2017-10-28T06:35:11.481Z,10.05
2017-10-28T06:35:52.015Z,10.05
2017-10-28T06:36:32.551Z,10.01
2017-10-28T06:37:13.089Z,10.05
2017-10-28T06:37:53.625Z,10.11
2017-10-28T06:38:34.158Z,10.05
2017-10-28T06:39:14.696Z,10.2
2017-10-28T06:39:55.233Z,10.14
2017-10-28T06:40:35.762Z,10.18
2017-10-28T06:41:16.301Z,10.15
2017-10-28T06:41:56.839Z,10.17
2017-10-28T06:42:37.381Z,10.23
2017-10-28T06:43:17.919Z,10.17
2017-10-28T06:43:58.457Z,10.23
2017-10-28T06:44:38.989Z,10.26
2017-10-28T06:45:19.524Z,10.22
2017-10-28T06:46:00.086Z,10.25
2017-10-28T06:46:40.595Z,10.23
2017-10-28T06:47:21.132Z,10.26
2017-10-28T06:48:01.667Z,10.26
2017-10-28T06:48:42.203Z,10.26
2017-10-28T06:49:22.840Z,10.3
2017-10-28T06:50:03.355Z,10.25
2017-10-28T06:50:43.891Z,10.26
2017-10-28T06:51:24.428Z,10.26
2017-10-28T06:52:04.964Z,10.3
2017-10-28T06:52:45.498Z,10.27
2017-10-28T06:53:26.022Z,10.27
2017-10-28T06:54:06.553Z,10.32
2017-10-28T06:54:47.132Z,10.33
2017-10-28T06:55:27.668Z,10.27
2017-10-28T06:56:08.206Z,10.32
2017-10-28T06:56:48.746Z,10.32
2017-10-28T06:57:29.289Z,10.33
2017-10-28T06:58:09.823Z,10.27
2017-10-28T06:58:50.361Z,10.34
2017-10-28T06:59:30.900Z,10.32
2017-10-28T07:00:11.429Z,10.27
2017-10-28T07:00:51.966Z,10.29
2017-10-28T07:01:32.511Z,10.34
2017-10-28T07:02:13.036Z,10.32
2017-10-28T07:02:53.590Z,10.4
2017-10-28T07:03:34.108Z,10.32
2017-10-28T07:04:14.639Z,10.34
2017-10-28T07:04:55.174Z,10.4
2017-10-28T07:05:35.712Z,10.34
2017-10-28T07:06:16.245Z,10.33
2017-10-28T07:06:56.809Z,10.34
2017-10-28T07:07:37.320Z,10.36
2017-10-28T07:08:17.863Z,10.36
2017-10-28T07:08:58.391Z,10.42
2017-10-28T07:09:38.918Z,10.4
2017-10-28T07:10:19.454Z,10.38
2017-10-28T07:10:59.997Z,10.41
2017-10-28T07:11:40.531Z,10.36
2017-10-28T07:12:21.071Z,10.36
2017-10-28T07:13:01.595Z,10.4
2017-10-28T07:13:42.133Z,10.42
2017-10-28T07:14:22.670Z,10.41
2017-10-28T07:15:03.203Z,10.4
2017-10-28T07:15:43.734Z,10.52
2017-10-28T07:16:24.266Z,10.4
2017-10-28T07:17:04.805Z,10.51
2017-10-28T07:17:45.341Z,10.51
2017-10-28T07:18:25.883Z,10.41
2017-10-28T07:19:06.415Z,10.42
2017-10-28T07:19:46.950Z,10.51
2017-10-28T07:20:27.483Z,10.59
2017-10-28T07:21:08.019Z,10.55
2017-10-28T07:21:48.548Z,10.48
2017-10-28T07:22:29.088Z,10.53
2017-10-28T07:23:09.707Z,10.56
2017-10-28T07:23:50.242Z,10.56
2017-10-28T07:24:30.784Z,10.55
2017-10-28T07:25:11.327Z,10.48
2017-10-28T07:25:51.865Z,10.59
2017-10-28T07:26:32.394Z,10.52
2017-10-28T07:27:12.930Z,10.6
2017-10-28T07:27:53.470Z,10.66
2017-10-28T07:28:34.010Z,10.63
2017-10-28T07:29:14.581Z,10.67
2017-10-28T07:29:55.115Z,10.64
2017-10-28T07:30:35.648Z,10.66
2017-10-28T07:31:16.181Z,10.63
2017-10-28T07:31:56.713Z,10.63
2017-10-28T07:32:37.249Z,10.59
2017-10-28T07:33:17.785Z,10.63
2017-10-28T07:33:58.354Z,10.63
2017-10-28T07:34:38.933Z,10.67
2017-10-28T07:35:19.483Z,10.64
2017-10-28T07:36:00.031Z,10.63
2017-10-28T07:36:40.564Z,10.63
2017-10-28T07:37:21.100Z,10.63
2017-10-28T07:38:01.641Z,10.63
2017-10-28T07:38:42.170Z,10.66
2017-10-28T07:39:22.707Z,10.67
2017-10-28T07:40:03.236Z,10.63
2017-10-28T07:40:43.767Z,10.63
2017-10-28T07:41:24.308Z,10.63
2017-10-28T07:42:04.844Z,10.71
2017-10-28T07:42:45.376Z,10.63
2017-10-28T07:43:25.911Z,10.7
2017-10-28T07:44:06.447Z,10.7
2017-10-28T07:44:46.985Z,10.68
2017-10-28T07:45:27.514Z,10.7
2017-10-28T07:46:08.057Z,10.71
2017-10-28T07:46:48.590Z,10.67
2017-10-28T07:47:29.121Z,10.66
2017-10-28T07:48:09.662Z,10.74
2017-10-28T07:48:50.189Z,10.76
2017-10-28T07:49:30.717Z,10.74
2017-10-28T07:50:11.253Z,10.76
2017-10-28T07:50:51.788Z,10.78
2017-10-28T07:51:32.340Z,10.73
2017-10-28T07:52:12.870Z,10.76
2017-10-28T07:52:53.411Z,10.82
2017-10-28T07:53:33.951Z,10.71
2017-10-28T07:54:14.490Z,10.74
2017-10-28T07:54:55.027Z,10.74
2017-10-28T07:55:35.563Z,10.73
2017-10-28T07:56:16.101Z,10.88
2017-10-28T07:56:56.637Z,10.82
2017-10-28T07:57:37.172Z,10.81
2017-10-28T07:58:17.715Z,10.86
2017-10-28T07:58:58.238Z,10.81
2017-10-28T07:59:38.775Z,10.78
2017-10-28T08:00:19.311Z,10.81
2017-10-28T08:00:59.854Z,10.81
2017-10-28T08:01:40.376Z,10.76
2017-10-28T08:02:20.907Z,10.79
2017-10-28T08:03:01.433Z,10.84
2017-10-28T08:03:41.971Z,10.86
2017-10-28T08:04:22.505Z,10.82
2017-10-28T08:05:03.044Z,10.86
2017-10-28T08:05:43.587Z,10.85
2017-10-28T08:06:24.123Z,10.85
2017-10-28T08:07:04.668Z,10.85
2017-10-28T08:07:45.190Z,10.86
2017-10-28T08:08:25.732Z,10.88
2017-10-28T08:09:06.267Z,10.89
2017-10-28T08:09:46.811Z,10.88
2017-10-28T08:10:27.347Z,10.86
2017-10-28T08:11:07.880Z,10.85
2017-10-28T08:11:48.417Z,10.82
2017-10-28T08:12:28.956Z,10.89
2017-10-28T08:13:09.487Z,10.89
2017-10-28T08:13:50.021Z,10.88
2017-10-28T08:14:30.560Z,10.88
2017-10-28T08:15:11.095Z,10.85
2017-10-28T08:15:51.639Z,10.89
2017-10-28T08:16:32.182Z,10.84
2017-10-28T08:17:12.722Z,10.89
2017-10-28T08:17:53.257Z,10.86
2017-10-28T08:18:33.792Z,10.97
2017-10-28T08:19:14.325Z,10.97
2017-10-28T08:19:54.881Z,10.92
2017-10-28T08:20:35.405Z,10.92
2017-10-28T08:21:15.939Z,10.96
2017-10-28T08:21:56.475Z,11.03
2017-10-28T08:22:37.008Z,11.04
2017-10-28T08:23:17.544Z,10.99
2017-10-28T08:23:58.071Z,11
2017-10-28T08:24:38.608Z,11.03
2017-10-28T08:25:19.143Z,10.94
2017-10-28T08:25:59.682Z,11.04
2017-10-28T08:26:40.210Z,11.03
2017-10-28T08:27:20.745Z,11
2017-10-28T08:28:01.275Z,10.97
2017-10-28T08:28:41.812Z,10.97
2017-10-28T08:29:22.357Z,11.04
2017-10-28T08:30:02.893Z,11.07
2017-10-28T08:30:43.435Z,11.09
2017-10-28T08:31:23.966Z,11
2017-10-28T08:32:04.500Z,11
2017-10-28T08:32:45.038Z,11.06
2017-10-28T08:33:25.570Z,11
2017-10-28T08:34:06.106Z,11.04
2017-10-28T08:34:46.651Z,11.03
2017-10-28T08:35:27.189Z,11.06
2017-10-28T08:36:07.716Z,10.97
2017-10-28T08:36:48.259Z,11
2017-10-28T08:37:28.791Z,11.03
2017-10-28T08:38:09.341Z,11.03
2017-10-28T08:38:49.875Z,11.03
2017-10-28T08:39:30.405Z,10.97
2017-10-28T08:40:10.935Z,11.02
2017-10-28T08:40:51.475Z,11.02
2017-10-28T08:41:32.003Z,11.07
2017-10-28T08:42:12.547Z,11.06
2017-10-28T08:42:53.081Z,11.06
2017-10-28T08:43:33.623Z,11.07
2017-10-28T08:44:14.161Z,11.06
2017-10-28T08:44:54.692Z,11.07
2017-10-28T08:45:35.235Z,11.14
2017-10-28T08:46:15.769Z,11.04